Time;durP1;ratioP1;P1;durP2;ratioP2;P2;SDS_P1;SDS_P2;PMS_P1;PMS_P2;Temp;Humidity;BMP_temperature;BMP_pressure;BME280_temperature;BME280_humidity;BME280_pressure;Samples;Min_cycle;Max_cycle;Signal;HPM_P1;HPM_P2
2022/03/16 00:01:43;;;;;;;16.85;13.13;;;7.00;99.90;;;;;;5068416;28;20028;-43
2022/03/16 00:04:08;;;;;;;16.05;14.23;;;7.00;99.90;;;;;;5081673;28;20028;-42
2022/03/16 00:06:34;;;;;;;21.33;15.10;;;6.90;99.90;;;;;;5067912;28;20029;-41
2022/03/16 00:09:00;;;;;;;22.17;15.23;;;6.80;99.90;;;;;;5080441;28;20368;-41
2022/03/16 00:11:26;;;;;;;21.63;15.13;;;6.80;99.90;;;;;;5068786;28;20032;-40
2022/03/16 00:13:51;;;;;;;21.08;16.17;;;6.80;99.90;;;;;;5077552;28;20562;-41
2022/03/16 00:16:17;;;;;;;25.27;16.30;;;6.80;99.90;;;;;;5070165;28;20058;-39
2022/03/16 00:18:45;;;;;;;20.73;15.73;;;6.80;99.90;;;;;;5075603;28;20036;-38
2022/03/16 00:21:11;;;;;;;25.02;16.85;;;6.70;99.90;;;;;;5072432;28;20036;-41
2022/03/16 00:23:36;;;;;;;28.02;17.65;;;6.70;99.90;;;;;;5073252;28;20396;-42
2022/03/16 00:26:03;;;;;;;22.50;16.35;;;6.70;99.90;;;;;;5075360;28;20802;-42
2022/03/16 00:28:28;;;;;;;26.05;17.55;;;6.70;99.90;;;;;;5070499;28;20105;-41
2022/03/16 00:30:54;;;;;;;27.35;18.50;;;6.70;99.90;;;;;;5077330;28;20786;-42
2022/03/16 00:33:20;;;;;;;25.20;17.95;;;6.70;99.90;;;;;;5068805;28;21147;-42
2022/03/16 00:35:45;;;;;;;27.88;18.42;;;6.70;99.90;;;;;;5078373;28;20125;-42
2022/03/16 00:38:13;;;;;;;25.08;16.63;;;6.70;99.90;;;;;;5069212;28;20083;-42
2022/03/16 00:40:38;;;;;;;22.95;16.70;;;6.70;99.90;;;;;;5076957;28;20024;-41
2022/03/16 00:43:04;;;;;;;25.08;17.10;;;6.70;99.90;;;;;;5068158;28;20024;-41
2022/03/16 00:45:29;;;;;;;24.85;17.17;;;6.80;99.90;;;;;;5080268;28;20516;-41
2022/03/16 00:47:55;;;;;;;24.15;17.40;;;6.70;99.90;;;;;;5070262;28;20053;-42
2022/03/16 00:50:20;;;;;;;23.52;16.65;;;6.70;99.90;;;;;;5075514;28;20025;-42
2022/03/16 00:52:46;;;;;;;18.83;13.80;;;6.70;99.90;;;;;;5087519;28;20036;-43
2022/03/16 00:55:11;;;;;;;21.17;15.75;;;6.70;99.90;;;;;;5076502;28;20041;-42
2022/03/16 00:57:37;;;;;;;23.60;17.80;;;6.70;99.90;;;;;;5085315;28;20068;-41
2022/03/16 01:00:04;;;;;;;22.52;16.80;;;6.70;99.90;;;;;;5079768;28;20107;-43
2022/03/16 01:02:30;;;;;;;26.33;18.60;;;6.70;99.90;;;;;;5082376;28;20043;-42
2022/03/16 01:04:55;;;;;;;22.92;17.25;;;6.70;99.90;;;;;;5082340;28;20087;-42
2022/03/16 01:07:21;;;;;;;23.52;17.85;;;6.70;99.90;;;;;;5080288;28;20489;-41
2022/03/16 01:09:46;;;;;;;24.90;18.23;;;6.70;99.90;;;;;;5084113;28;20020;-41
2022/03/16 01:12:12;;;;;;;26.40;19.92;;;6.70;99.90;;;;;;5077674;28;20053;-42
2022/03/16 01:14:37;;;;;;;26.45;18.55;;;6.70;99.90;;;;;;5085761;28;20021;-41
2022/03/16 01:17:03;;;;;;;28.25;21.23;;;6.60;99.90;;;;;;5075329;28;20039;-40
2022/03/16 01:19:29;;;;;;;25.55;19.92;;;6.60;99.90;;;;;;5087474;28;20028;-41
2022/03/16 01:21:55;;;;;;;23.20;18.52;;;6.60;99.90;;;;;;5074889;28;20038;-40
2022/03/16 01:24:20;;;;;;;23.50;18.60;;;6.70;99.90;;;;;;5086311;28;20031;-42
2022/03/16 01:26:46;;;;;;;24.13;17.55;;;6.60;99.90;;;;;;5074158;28;20032;-42
2022/03/16 01:29:11;;;;;;;24.23;17.77;;;6.60;99.90;;;;;;5087391;28;20623;-42
2022/03/16 01:31:37;;;;;;;20.80;16.67;;;6.60;99.90;;;;;;5074509;28;20070;-42
2022/03/16 01:34:03;;;;;;;22.83;17.92;;;6.60;99.90;;;;;;5086253;28;20353;-40
2022/03/16 01:36:29;;;;;;;23.40;17.92;;;6.60;99.90;;;;;;5076650;28;20032;-41
2022/03/16 01:38:54;;;;;;;25.23;18.73;;;6.50;99.90;;;;;;5083481;28;20031;-40
2022/03/16 01:41:20;;;;;;;24.50;16.90;;;6.50;99.90;;;;;;5080458;28;20025;-39
2022/03/16 01:43:45;;;;;;;22.73;17.48;;;6.50;99.90;;;;;;5079545;28;20706;-40
2022/03/16 01:46:11;;;;;;;21.85;17.20;;;6.40;99.90;;;;;;5083397;28;20055;-43
2022/03/16 01:48:36;;;;;;;21.42;17.05;;;6.40;99.90;;;;;;5077656;28;20028;-38
2022/03/16 01:51:03;;;;;;;21.45;17.38;;;6.40;99.90;;;;;;5084153;28;20519;-39
2022/03/16 01:53:29;;;;;;;23.02;16.95;;;6.40;99.90;;;;;;5076401;28;20137;-41
2022/03/16 01:55:54;;;;;;;21.75;17.00;;;6.30;99.90;;;;;;5084471;28;20561;-42
2022/03/16 01:58:20;;;;;;;23.52;18.10;;;6.30;99.90;;;;;;5074799;28;20039;-40
2022/03/16 02:00:46;;;;;;;23.27;17.35;;;6.20;99.90;;;;;;5085758;28;20028;-41
2022/03/16 02:03:11;;;;;;;24.13;18.00;;;6.20;99.90;;;;;;5073925;28;20032;-39
2022/03/16 02:05:38;;;;;;;23.08;16.10;;;6.20;99.90;;;;;;5086058;28;20016;-41
2022/03/16 02:08:05;;;;;;;23.48;18.08;;;6.20;99.90;;;;;;5072789;28;20056;-40
2022/03/16 02:10:31;;;;;;;23.40;17.48;;;6.20;99.90;;;;;;5086429;28;20062;-43
2022/03/16 02:12:57;;;;;;;23.00;17.52;;;6.20;99.90;;;;;;5073835;28;20051;-41
2022/03/16 02:15:23;;;;;;;21.02;16.77;;;6.20;99.90;;;;;;5085441;28;20465;-42
2022/03/16 02:17:55;;;;;;;23.75;17.67;;;6.20;99.90;;;;;;5076455;28;20173;-42
2022/03/16 02:20:21;;;;;;;24.38;17.25;;;6.10;99.90;;;;;;5082832;28;20024;-40
2022/03/16 02:23:02;;;;;;;25.77;17.83;;;6.10;99.90;;;;;;5078400;28;20024;-42
2022/03/16 02:25:29;;;;;;;26.92;20.38;;;6.10;99.90;;;;;;5082784;28;20027;-42
2022/03/16 02:27:55;;;;;;;27.80;20.60;;;6.10;99.90;;;;;;5077965;28;20032;-38
2022/03/16 02:30:22;;;;;;;24.98;19.15;;;6.10;99.90;;;;;;5080751;28;20028;-41
2022/03/16 02:32:48;;;;;;;26.15;19.73;;;6.10;99.90;;;;;;5080187;28;20536;-42
2022/03/16 02:35:14;;;;;;;29.25;21.20;;;6.10;99.90;;;;;;5077895;28;20108;-42
2022/03/16 02:37:40;;;;;;;27.77;21.02;;;6.10;99.90;;;;;;5083900;28;20063;-40
2022/03/16 02:40:11;;;;;;;23.73;18.98;;;6.10;99.90;;;;;;5074582;28;20385;-41
2022/03/16 02:42:37;;;;;;;28.10;20.83;;;6.10;99.90;;;;;;5083880;28;20024;-41
2022/03/16 02:45:05;;;;;;;29.30;21.55;;;6.10;99.90;;;;;;5074480;28;20020;-42
2022/03/16 02:47:31;;;;;;;31.10;22.95;;;6.10;99.90;;;;;;5083729;28;20064;-42
2022/03/16 02:49:56;;;;;;;29.52;23.52;;;6.10;99.90;;;;;;5074435;28;20087;-39
2022/03/16 02:52:22;;;;;;;32.33;24.08;;;6.20;99.90;;;;;;5086049;28;20055;-42
2022/03/16 02:54:48;;;;;;;28.98;23.38;;;6.10;99.90;;;;;;5071767;28;20059;-40
2022/03/16 02:57:16;;;;;;;29.77;23.10;;;6.10;99.90;;;;;;5085972;28;20069;-39
2022/03/16 02:59:42;;;;;;;31.92;23.08;;;6.10;99.90;;;;;;5072111;28;20550;-41
2022/03/16 03:02:08;;;;;;;27.05;22.10;;;6.10;99.90;;;;;;5084481;28;20536;-41
2022/03/16 03:04:33;;;;;;;30.65;22.58;;;6.10;99.90;;;;;;5074329;28;20037;-41
2022/03/16 03:06:59;;;;;;;29.10;21.90;;;6.10;99.90;;;;;;5083381;28;20032;-41
2022/03/16 03:09:25;;;;;;;31.10;22.90;;;6.10;99.90;;;;;;5076868;28;20561;-40
2022/03/16 03:11:51;;;;;;;29.30;21.98;;;6.10;99.90;;;;;;5080791;28;20031;-41
2022/03/16 03:14:16;;;;;;;32.60;23.27;;;6.10;99.90;;;;;;5080234;28;20024;-40
2022/03/16 03:16:42;;;;;;;28.55;21.95;;;6.10;99.90;;;;;;5076503;28;20032;-44
2022/03/16 03:19:08;;;;;;;28.02;21.02;;;6.10;99.90;;;;;;5082666;28;20064;-41
2022/03/16 03:21:33;;;;;;;26.90;20.55;;;6.10;99.90;;;;;;5075591;28;20026;-40
2022/03/16 03:23:59;;;;;;;29.05;23.38;;;6.00;99.90;;;;;;5083259;28;20701;-42
2022/03/16 03:26:25;;;;;;;30.58;23.52;;;6.00;99.90;;;;;;5073776;28;20455;-42
2022/03/16 03:28:50;;;;;;;29.98;23.02;;;6.00;99.90;;;;;;5083572;28;20594;-41
2022/03/16 03:31:16;;;;;;;25.92;20.50;;;6.00;99.90;;;;;;5073038;28;20016;-41
2022/03/16 03:33:42;;;;;;;30.05;23.08;;;6.00;99.90;;;;;;5085231;28;20036;-41
2022/03/16 03:36:07;;;;;;;31.73;24.48;;;6.00;99.90;;;;;;5071728;28;20024;-41
2022/03/16 03:38:33;;;;;;;34.42;25.63;;;6.00;99.90;;;;;;5084582;28;20395;-42
2022/03/16 03:40:58;;;;;;;33.03;24.42;;;6.00;99.90;;;;;;5072865;28;20103;-42
2022/03/16 03:43:24;;;;;;;30.45;23.67;;;6.00;99.90;;;;;;5084367;28;20359;-42
2022/03/16 03:45:49;;;;;;;32.72;24.67;;;6.00;99.90;;;;;;5074857;28;20468;-42
2022/03/16 03:48:15;;;;;;;29.13;23.13;;;6.00;99.90;;;;;;5081813;28;20391;-41
2022/03/16 03:50:40;;;;;;;30.80;23.92;;;5.90;99.90;;;;;;5077288;28;20024;-38
2022/03/16 03:53:06;;;;;;;28.48;21.27;;;5.90;99.90;;;;;;5079002;28;20468;-41
2022/03/16 03:55:31;;;;;;;27.88;22.70;;;5.90;99.90;;;;;;5080858;28;20040;-41
2022/03/16 03:57:57;;;;;;;34.33;25.15;;;5.90;99.90;;;;;;5075675;28;20488;-41
2022/03/16 04:00:23;;;;;;;30.05;23.85;;;5.90;99.90;;;;;;5083726;28;20080;-40
2022/03/16 04:02:50;;;;;;;34.90;25.30;;;5.90;99.90;;;;;;5073523;28;20074;-41
2022/03/16 04:05:19;;;;;;;34.72;26.05;;;5.80;99.90;;;;;;5083112;28;20028;-40
2022/03/16 04:07:45;;;;;;;34.13;25.75;;;5.90;99.90;;;;;;5073286;28;20108;-40
2022/03/16 04:10:11;;;;;;;36.17;28.73;;;5.90;99.90;;;;;;5084473;28;20447;-41
2022/03/16 04:12:37;;;;;;;36.60;28.50;;;5.80;99.90;;;;;;5072504;28;20031;-41
2022/03/16 04:15:04;;;;;;;34.85;26.65;;;5.90;99.90;;;;;;5086390;28;20028;-42
2022/03/16 04:17:29;;;;;;;33.28;26.10;;;5.90;99.90;;;;;;5075563;28;20472;-41
2022/03/16 04:19:55;;;;;;;31.00;25.15;;;5.80;99.90;;;;;;5087443;28;20035;-42
2022/03/16 04:22:20;;;;;;;33.60;24.83;;;5.80;99.90;;;;;;5076197;28;20035;-40
2022/03/16 04:24:46;;;;;;;33.22;24.95;;;5.80;99.90;;;;;;5087485;28;20024;-43
2022/03/16 04:27:11;;;;;;;32.35;23.95;;;5.80;99.90;;;;;;5078499;28;20052;-42
2022/03/16 04:29:36;;;;;;;30.48;23.83;;;5.80;99.90;;;;;;5085103;28;20085;-43
2022/03/16 04:32:02;;;;;;;28.90;22.10;;;5.80;99.90;;;;;;5081232;28;20373;-43
2022/03/16 04:34:28;;;;;;;31.05;23.52;;;5.80;99.90;;;;;;5082254;28;20141;-42
2022/03/16 04:36:53;;;;;;;30.27;23.33;;;5.70;99.90;;;;;;5083476;28;20020;-42
2022/03/16 04:39:19;;;;;;;30.33;24.05;;;5.70;99.90;;;;;;5078684;28;20550;-42
2022/03/16 04:41:44;;;;;;;30.58;22.85;;;5.70;99.90;;;;;;5086597;28;20020;-41
2022/03/16 04:44:10;;;;;;;30.48;22.70;;;5.70;99.90;;;;;;5077484;28;20114;-38
2022/03/16 04:46:35;;;;;;;26.25;20.40;;;5.60;99.90;;;;;;5085722;28;20066;-41
2022/03/16 04:49:01;;;;;;;30.35;22.58;;;5.60;99.90;;;;;;5076564;28;20111;-41
2022/03/16 04:51:26;;;;;;;31.40;24.30;;;5.60;99.90;;;;;;5087497;28;20052;-42
2022/03/16 04:53:52;;;;;;;34.33;24.90;;;5.60;99.90;;;;;;5079624;28;20051;-41
2022/03/16 04:56:17;;;;;;;33.83;25.00;;;5.60;99.90;;;;;;5067961;28;20059;-42
2022/03/16 04:58:43;;;;;;;33.67;24.52;;;5.50;99.90;;;;;;5079688;28;20431;-41
2022/03/16 05:01:08;;;;;;;34.72;23.27;;;5.50;99.90;;;;;;5067457;28;20552;-41
2022/03/16 05:03:34;;;;;;;29.90;23.20;;;5.50;99.90;;;;;;5077585;28;20087;-40
2022/03/16 05:06:00;;;;;;;29.63;21.48;;;5.50;99.90;;;;;;5069042;28;20820;-42
2022/03/16 05:08:25;;;;;;;28.90;21.80;;;5.50;99.90;;;;;;5075306;28;20020;-42
2022/03/16 05:10:51;;;;;;;28.42;19.63;;;5.50;99.90;;;;;;5071209;28;20431;-41
2022/03/16 05:13:17;;;;;;;25.98;20.23;;;5.40;99.90;;;;;;5072578;28;20027;-40
2022/03/16 05:15:42;;;;;;;28.13;21.02;;;5.40;99.90;;;;;;5072936;28;20035;-43
2022/03/16 05:18:08;;;;;;;26.73;19.55;;;5.40;99.90;;;;;;5070059;28;20028;-39
2022/03/16 05:20:33;;;;;;;26.60;20.45;;;5.40;99.90;;;;;;5076577;28;20464;-40
2022/03/16 05:22:59;;;;;;;25.90;20.55;;;5.40;99.90;;;;;;5067826;28;20607;-41
2022/03/16 05:25:27;;;;;;;28.38;21.48;;;5.40;99.90;;;;;;5078648;28;20189;-40
2022/03/16 05:27:53;;;;;;;28.67;20.40;;;5.40;99.90;;;;;;5067257;28;20024;-42
2022/03/16 05:30:20;;;;;;;25.77;18.63;;;5.40;99.90;;;;;;5077852;28;20024;-43
2022/03/16 05:32:46;;;;;;;26.20;19.20;;;5.30;99.90;;;;;;5066762;28;20035;-43
2022/03/16 05:35:13;;;;;;;22.70;17.48;;;5.30;99.90;;;;;;5080040;28;20017;-43
2022/03/16 05:37:40;;;;;;;19.65;16.05;;;5.30;99.90;;;;;;5066500;28;20113;-43
2022/03/16 05:40:07;;;;;;;18.60;15.60;;;5.30;99.90;;;;;;5079397;28;20035;-40
2022/03/16 05:42:33;;;;;;;23.55;17.58;;;5.30;99.90;;;;;;5067486;28;20028;-42
2022/03/16 05:44:59;;;;;;;26.65;19.38;;;5.30;99.90;;;;;;5077047;28;20031;-43
2022/03/16 05:47:25;;;;;;;27.42;21.73;;;5.20;99.90;;;;;;5068772;28;20026;-42
2022/03/16 05:49:52;;;;;;;29.02;20.75;;;5.20;99.90;;;;;;5076846;28;20017;-41
2022/03/16 05:52:21;;;;;;;26.02;19.55;;;5.20;99.90;;;;;;5083283;28;20055;-41
2022/03/16 05:54:51;;;;;;;26.67;21.13;;;5.20;99.90;;;;;;5080140;28;20028;-41
2022/03/16 05:57:17;;;;;;;27.80;20.95;;;5.20;99.90;;;;;;5071563;28;20251;-42
2022/03/16 05:59:44;;;;;;;30.92;22.25;;;5.20;99.90;;;;;;5081565;28;20189;-41
2022/03/16 06:02:11;;;;;;;27.42;20.88;;;5.20;99.90;;;;;;5079205;28;20042;-42
2022/03/16 06:04:37;;;;;;;28.42;22.92;;;5.20;99.90;;;;;;5083378;28;20051;-42
2022/03/16 06:07:04;;;;;;;32.13;23.60;;;5.20;99.90;;;;;;5076184;28;20028;-41
2022/03/16 06:09:30;;;;;;;32.83;24.25;;;5.20;99.90;;;;;;5084775;28;20377;-41
2022/03/16 06:11:56;;;;;;;31.50;24.65;;;5.20;99.90;;;;;;5074386;28;20039;-43
2022/03/16 06:14:21;;;;;;;31.60;24.98;;;5.20;99.90;;;;;;5085576;28;20066;-40
2022/03/16 06:16:47;;;;;;;31.05;23.48;;;5.30;99.90;;;;;;5073756;28;20467;-41
2022/03/16 06:19:13;;;;;;;33.42;25.45;;;5.30;99.90;;;;;;5086352;28;20044;-43
2022/03/16 06:21:38;;;;;;;31.00;24.90;;;5.30;99.90;;;;;;5073299;28;20036;-41
2022/03/16 06:24:05;;;;;;;35.15;25.55;;;5.30;99.90;;;;;;5086586;28;20541;-41
2022/03/16 06:26:30;;;;;;;30.95;23.27;;;5.30;99.90;;;;;;5073075;28;20369;-40
2022/03/16 06:28:56;;;;;;;31.90;24.73;;;5.30;99.90;;;;;;5085793;28;20031;-42
2022/03/16 06:31:22;;;;;;;32.90;25.08;;;5.30;99.90;;;;;;5076529;28;20036;-42
2022/03/16 06:33:47;;;;;;;34.15;26.73;;;5.30;99.90;;;;;;5082351;28;20505;-44
2022/03/16 06:36:13;;;;;;;41.20;30.52;;;5.40;99.90;;;;;;5078543;28;20426;-42
2022/03/16 06:38:38;;;;;;;36.92;28.25;;;5.30;99.90;;;;;;5079340;28;20040;-41
2022/03/16 06:41:05;;;;;;;38.28;28.27;;;5.40;99.90;;;;;;5080601;28;20067;-42
2022/03/16 06:43:30;;;;;;;36.10;27.45;;;5.40;99.90;;;;;;5078111;28;20115;-38
2022/03/16 06:45:56;;;;;;;35.80;27.20;;;5.50;99.90;;;;;;5082993;28;20061;-39
2022/03/16 06:48:23;;;;;;;35.80;26.65;;;5.50;99.90;;;;;;5075359;28;20030;-41
2022/03/16 06:50:49;;;;;;;36.38;27.65;;;5.50;99.90;;;;;;5074844;28;20459;-41
2022/03/16 06:53:15;;;;;;;40.58;28.33;;;5.60;99.90;;;;;;5083463;28;20011;-42
2022/03/16 06:55:41;;;;;;;37.08;27.17;;;5.60;99.90;;;;;;5104023;28;20490;-42
2022/03/16 06:58:06;;;;;;;35.45;26.48;;;5.60;99.90;;;;;;5087967;28;20052;-41
2022/03/16 07:00:32;;;;;;;36.67;27.60;;;5.70;99.90;;;;;;5081392;28;20024;-41
2022/03/16 07:02:59;;;;;;;34.58;26.65;;;5.70;99.90;;;;;;5071862;28;20021;-40
2022/03/16 07:05:30;;;;;;;36.20;27.67;;;5.70;99.90;;;;;;5085255;28;20020;-42
2022/03/16 07:08:00;;;;;;;34.65;26.15;;;5.80;99.90;;;;;;5071068;28;20085;-42
2022/03/16 07:10:27;;;;;;;34.08;24.73;;;5.80;99.90;;;;;;5085094;28;20020;-42
2022/03/16 07:12:53;;;;;;;34.75;24.42;;;5.90;99.90;;;;;;5073344;28;20028;-43
2022/03/16 07:15:19;;;;;;;33.80;23.48;;;6.00;99.90;;;;;;5082464;28;20020;-42
2022/03/16 07:17:44;;;;;;;34.75;25.13;;;6.00;99.90;;;;;;5075535;28;20443;-41
2022/03/16 07:20:11;;;;;;;34.67;25.88;;;6.00;99.90;;;;;;5080465;28;20065;-42
2022/03/16 07:22:37;;;;;;;33.80;25.23;;;6.10;99.90;;;;;;5078468;28;20067;-41
2022/03/16 07:25:09;;;;;;;38.50;25.63;;;6.10;99.90;;;;;;5077868;28;20024;-39
2022/03/16 07:27:36;;;;;;;37.35;25.88;;;6.10;99.90;;;;;;5080796;28;20036;-42
2022/03/16 07:30:02;;;;;;;32.60;25.77;;;6.20;99.90;;;;;;5075372;28;20024;-41
2022/03/16 07:32:28;;;;;;;35.25;24.73;;;6.20;99.90;;;;;;5083026;28;20046;-43
2022/03/16 07:34:53;;;;;;;31.40;24.13;;;6.30;99.90;;;;;;5072790;28;20044;-41
2022/03/16 07:37:19;;;;;;;31.98;24.02;;;6.30;99.90;;;;;;5083178;28;20522;-42
2022/03/16 07:39:45;;;;;;;31.73;24.25;;;6.40;99.90;;;;;;5072473;28;20746;-40
2022/03/16 07:42:11;;;;;;;32.63;24.40;;;6.50;99.90;;;;;;5084139;28;20096;-42
2022/03/16 07:44:36;;;;;;;32.20;24.63;;;6.50;99.90;;;;;;5076501;28;20031;-40
2022/03/16 07:47:02;;;;;;;33.25;24.70;;;6.60;99.90;;;;;;5085348;28;20111;-42
2022/03/16 07:49:29;;;;;;;32.50;24.77;;;6.60;99.90;;;;;;5071845;28;20048;-41
2022/03/16 07:51:55;;;;;;;32.33;23.98;;;6.60;99.90;;;;;;5068861;28;20030;-41
2022/03/16 07:54:21;;;;;;;34.08;25.25;;;6.70;99.90;;;;;;5080127;28;20429;-43
2022/03/16 07:56:47;;;;;;;33.00;22.92;;;6.80;99.90;;;;;;5068724;28;20132;-42
2022/03/16 07:59:14;;;;;;;31.13;22.65;;;6.80;99.90;;;;;;5077420;28;20115;-41
2022/03/16 08:01:41;;;;;;;28.98;22.30;;;6.80;99.90;;;;;;5072174;28;20766;-43
2022/03/16 08:04:07;;;;;;;29.35;22.70;;;6.90;99.90;;;;;;5074267;28;20463;-42
2022/03/16 08:06:33;;;;;;;28.13;22.45;;;6.90;99.90;;;;;;5073700;28;20040;-43
2022/03/16 08:08:59;;;;;;;29.00;21.95;;;7.00;99.90;;;;;;5072061;28;20028;-39
2022/03/16 08:11:25;;;;;;;29.38;22.35;;;7.10;99.90;;;;;;5076291;28;20032;-44
2022/03/16 08:13:51;;;;;;;27.70;21.15;;;7.10;99.90;;;;;;5086985;28;20024;-42
2022/03/16 08:16:16;;;;;;;28.52;21.13;;;7.20;99.90;;;;;;5078116;28;20387;-41
2022/03/16 08:18:42;;;;;;;29.42;21.05;;;7.20;99.90;;;;;;5096189;28;20032;-40
2022/03/16 08:21:07;;;;;;;25.92;20.23;;;7.30;99.90;;;;;;5091757;28;20106;-42
2022/03/16 08:23:33;;;;;;;25.42;20.17;;;7.40;99.90;;;;;;5108073;28;20466;-43
2022/03/16 08:25:59;;;;;;;23.65;19.05;;;7.50;99.90;;;;;;5074635;28;20042;-41
2022/03/16 08:28:25;;;;;;;23.45;18.73;;;7.60;99.90;;;;;;5088940;28;20493;-42
2022/03/16 08:30:51;;;;;;;27.40;19.58;;;7.70;99.90;;;;;;5074033;28;20566;-41
2022/03/16 08:33:18;;;;;;;21.33;16.27;;;7.80;99.90;;;;;;5086467;28;20186;-42
2022/03/16 08:35:45;;;;;;;20.90;17.00;;;7.90;99.90;;;;;;5076755;28;20193;-41
2022/03/16 08:38:10;;;;;;;23.27;17.73;;;8.00;99.90;;;;;;5087528;28;20032;-40
2022/03/16 08:40:36;;;;;;;20.30;16.38;;;8.10;99.90;;;;;;5077238;28;20031;-41
2022/03/16 08:43:02;;;;;;;20.50;15.23;;;8.20;99.90;;;;;;5084278;28;20060;-42
2022/03/16 08:45:28;;;;;;;20.35;15.27;;;8.40;99.90;;;;;;5080440;28;20456;-41
2022/03/16 08:47:54;;;;;;;20.23;14.02;;;8.50;99.90;;;;;;5079943;28;20035;-41
2022/03/16 08:50:19;;;;;;;18.58;13.93;;;8.60;99.90;;;;;;5083435;28;20028;-40
2022/03/16 08:52:45;;;;;;;17.42;13.32;;;8.70;99.90;;;;;;5077972;28;20368;-41
2022/03/16 08:55:14;;;;;;;17.58;13.30;;;8.80;99.90;;;;;;5085872;28;20031;-41
2022/03/16 08:57:39;;;;;;;16.02;12.63;;;8.80;99.90;;;;;;5076554;28;20051;-42
2022/03/16 09:00:06;;;;;;;16.10;12.68;;;8.90;99.90;;;;;;5085198;28;20020;-41
2022/03/16 09:02:32;;;;;;;16.52;12.82;;;9.00;99.90;;;;;;5075255;28;20054;-41
2022/03/16 09:04:57;;;;;;;15.88;12.23;;;9.10;99.90;;;;;;5087470;28;20456;-43
2022/03/16 09:07:23;;;;;;;16.73;12.55;;;9.20;99.90;;;;;;5074139;28;20020;-42
2022/03/16 09:09:48;;;;;;;15.55;12.57;;;9.30;99.90;;;;;;5084014;28;20490;-42
2022/03/16 09:12:15;;;;;;;15.88;13.00;;;9.30;99.90;;;;;;5075741;28;20032;-39
2022/03/16 09:14:41;;;;;;;20.23;13.35;;;9.40;99.90;;;;;;5086615;28;20032;-42
2022/03/16 09:17:10;;;;;;;16.05;12.77;;;9.40;99.90;;;;;;5075537;28;20435;-41
2022/03/16 09:19:36;;;;;;;17.33;13.52;;;9.50;99.90;;;;;;5086159;28;20043;-42
2022/03/16 09:22:02;;;;;;;14.45;12.15;;;9.50;99.90;;;;;;5076495;28;20021;-43
2022/03/16 09:24:28;;;;;;;16.88;12.48;;;9.60;99.90;;;;;;5084795;28;20074;-42
2022/03/16 09:26:58;;;;;;;18.45;13.20;;;9.60;99.90;;;;;;5080226;28;20056;-42
2022/03/16 09:29:24;;;;;;;18.15;13.07;;;9.70;99.90;;;;;;5082059;28;20040;-43
2022/03/16 09:31:49;;;;;;;14.70;12.25;;;9.70;99.90;;;;;;5081480;28;20044;-42
2022/03/16 09:34:15;;;;;;;16.23;12.23;;;9.80;99.90;;;;;;5079644;28;20079;-43
2022/03/16 09:36:42;;;;;;;14.90;12.57;;;9.80;99.90;;;;;;5083694;28;20469;-42
2022/03/16 09:39:09;;;;;;;16.00;12.27;;;9.80;99.90;;;;;;5076961;28;20043;-41
2022/03/16 09:41:36;;;;;;;17.35;12.75;;;9.90;99.90;;;;;;5085176;28;20452;-43
2022/03/16 09:44:02;;;;;;;18.50;13.00;;;9.90;99.90;;;;;;5072359;28;20027;-42
2022/03/16 09:46:33;;;;;;;16.27;13.20;;;9.90;99.90;;;;;;5085714;28;20028;-41
2022/03/16 09:48:59;;;;;;;18.97;13.33;;;10.00;99.90;;;;;;5076996;28;20118;-41
2022/03/16 09:51:25;;;;;;;16.30;12.13;;;10.00;99.90;;;;;;5066544;28;21060;-41
2022/03/16 09:53:52;;;;;;;15.57;11.55;;;10.00;99.90;;;;;;5073736;28;20895;-42
2022/03/16 09:56:19;;;;;;;15.90;12.40;;;10.10;99.90;;;;;;5086634;28;20043;-42
2022/03/16 09:58:44;;;;;;;14.45;11.77;;;10.10;99.90;;;;;;5073049;28;20080;-41
2022/03/16 10:01:10;;;;;;;16.52;12.60;;;10.10;99.90;;;;;;5086920;28;20044;-43
2022/03/16 10:03:35;;;;;;;16.38;13.02;;;10.20;99.90;;;;;;5075532;28;20102;-42
2022/03/16 10:06:04;;;;;;;17.83;12.50;;;10.20;99.90;;;;;;5085017;28;20024;-41
2022/03/16 10:08:31;;;;;;;17.30;13.30;;;10.20;99.90;;;;;;5078024;28;20074;-42
2022/03/16 10:14:04;;;;;;;14.95;11.75;;;10.30;99.90;;;;;;5075799;28;20056;-41
2022/03/16 10:17:43;;;;;;;16.58;11.95;;;10.30;99.90;;;;;;5085662;28;20036;-39
2022/03/16 10:19:15;;;;;;;14.43;11.95;;;10.40;99.90;;;;;;5073046;28;20045;-42
2022/03/16 10:21:40;;;;;;;15.60;10.95;;;10.50;99.90;;;;;;5085366;28;20364;-41
2022/03/16 10:24:06;;;;;;;16.27;12.30;;;10.50;99.90;;;;;;5076514;28;20040;-43
2022/03/16 10:26:31;;;;;;;15.80;12.65;;;10.60;99.90;;;;;;5082988;28;20028;-43
2022/03/16 10:29:01;;;;;;;16.73;11.68;;;10.60;99.90;;;;;;5079601;28;20031;-41
2022/03/16 10:31:27;;;;;;;14.30;12.00;;;10.70;99.90;;;;;;5080303;28;20024;-41
2022/03/16 10:33:53;;;;;;;16.55;12.05;;;10.80;99.90;;;;;;5080883;28;20035;-40
2022/03/16 10:36:23;;;;;;;15.70;12.75;;;10.80;99.90;;;;;;5078464;28;20467;-42
2022/03/16 10:38:55;;;;;;;15.30;11.65;;;10.90;99.90;;;;;;5082418;28;20036;-40
2022/03/16 10:47:17;;;;;;;15.52;11.50;;;11.10;99.90;;;;;;5082502;28;20504;-40
2022/03/16 10:49:44;;;;;;;12.77;10.98;;;11.20;99.90;;;;;;5073847;28;20497;-41
2022/03/16 10:52:17;;;;;;;13.80;11.30;;;11.30;99.90;;;;;;5070016;28;20507;-38
2022/03/16 10:54:44;;;;;;;15.38;11.60;;;11.30;99.90;;;;;;5071107;28;20040;-39
2022/03/16 10:57:10;;;;;;;13.40;10.65;;;11.40;99.90;;;;;;5071290;28;20045;-41
2022/03/16 10:59:37;;;;;;;15.13;11.27;;;11.50;99.90;;;;;;5067625;28;20093;-38
2022/03/16 11:02:12;;;;;;;13.32;10.55;;;11.60;99.90;;;;;;5073705;28;20048;-40
2022/03/16 11:04:39;;;;;;;14.82;10.63;;;11.70;99.90;;;;;;5066117;28;20484;-41
2022/03/16 11:07:05;;;;;;;11.35;9.63;;;11.80;99.90;;;;;;5074694;28;20047;-42
2022/03/16 11:09:32;;;;;;;12.35;10.20;;;11.80;99.90;;;;;;5066917;28;20020;-39
2022/03/16 11:14:47;;;;;;;10.27;8.90;;;12.00;99.90;;;;;;5071123;28;20071;-40
2022/03/16 11:17:13;;;;;;;10.63;8.73;;;12.10;99.90;;;;;;5074539;28;20095;-40
2022/03/16 11:19:44;;;;;;;9.77;8.15;;;12.20;99.90;;;;;;5083902;28;20051;-42
2022/03/16 11:22:21;;;;;;;11.77;9.88;;;12.30;99.90;;;;;;5073791;28;20101;-42
2022/03/16 11:25:08;;;;;;;12.68;9.02;;;12.40;99.90;;;;;;5086492;28;20479;-40
2022/03/16 11:27:49;;;;;;;10.90;8.90;;;12.40;99.90;;;;;;5080042;28;20027;-39
2022/03/16 11:30:27;;;;;;;10.05;7.68;;;12.50;99.90;;;;;;5090217;28;20660;-42
2022/03/16 11:33:00;;;;;;;10.80;8.07;;;12.60;99.90;;;;;;5080459;28;20027;-41
2022/03/16 11:35:44;;;;;;;9.32;8.23;;;12.60;99.90;;;;;;5090343;28;20059;-40
2022/03/16 11:38:13;;;;;;;9.70;8.30;;;12.70;99.90;;;;;;5082715;28;20035;-41
2022/03/16 11:40:42;;;;;;;10.80;8.02;;;12.80;99.90;;;;;;5090535;28;20032;-42
2022/03/16 11:43:08;;;;;;;10.13;8.23;;;12.90;99.90;;;;;;5079572;28;20039;-41
2022/03/16 11:45:38;;;;;;;9.43;8.10;;;12.90;99.90;;;;;;5090049;28;20040;-40
2022/03/16 11:48:31;;;;;;;8.95;7.93;;;13.00;99.50;;;;;;5080876;28;20036;-41
2022/03/16 11:51:09;;;;;;;11.00;9.05;;;13.00;99.40;;;;;;5090250;28;20387;-42
2022/03/16 11:53:46;;;;;;;10.63;9.40;;;13.00;99.00;;;;;;5080878;28;20424;-40
2022/03/16 11:56:23;;;;;;;11.25;9.13;;;13.10;98.50;;;;;;5089952;28;20108;-41
2022/03/16 11:58:52;;;;;;;8.45;7.55;;;13.20;97.90;;;;;;5080015;28;20048;-43
2022/03/16 12:01:28;;;;;;;7.15;6.45;;;13.30;98.00;;;;;;5090869;28;20134;-41
2022/03/16 12:04:29;;;;;;;8.82;7.93;;;13.40;98.30;;;;;;5079689;28;20115;-42
2022/03/16 12:07:02;;;;;;;8.68;7.28;;;13.50;98.30;;;;;;5087011;28;20399;-39
2022/03/16 12:09:51;;;;;;;7.80;6.57;;;13.50;98.30;;;;;;5083586;28;20585;-38
2022/03/16 12:15:12;;;;;;;7.93;7.03;;;13.50;97.90;;;;;;5088240;28;20042;-40
2022/03/16 12:18:01;;;;;;;7.15;6.30;;;13.50;97.90;;;;;;5088509;28;20334;-41
2022/03/16 12:20:31;;;;;;;8.20;7.25;;;13.50;97.80;;;;;;5074098;28;20024;-41
2022/03/16 12:23:02;;;;;;;7.25;6.55;;;13.60;97.50;;;;;;5090362;28;20060;-42
2022/03/16 12:25:30;;;;;;;7.32;6.10;;;13.60;97.50;;;;;;5074190;28;20403;-41
2022/03/16 12:30:55;;;;;;;7.90;7.05;;;13.80;97.70;;;;;;5071245;28;20059;-41
2022/03/16 12:33:25;;;;;;;8.75;6.50;;;13.80;97.40;;;;;;5079380;28;20028;-41
2022/03/16 12:35:59;;;;;;;6.78;6.10;;;13.90;97.50;;;;;;5073065;28;20028;-41
2022/03/16 12:38:32;;;;;;;7.60;6.20;;;13.90;97.40;;;;;;5075531;28;20039;-41
2022/03/16 12:43:43;;;;;;;8.73;7.35;;;14.10;97.10;;;;;;5076410;28;19921;-42
2022/03/16 12:46:47;;;;;;;7.55;6.72;;;14.10;96.50;;;;;;5071153;28;20177;-40
2022/03/16 12:49:13;;;;;;;7.47;6.35;;;14.10;96.40;;;;;;5080021;28;20024;-42
2022/03/16 12:51:49;;;;;;;7.45;6.70;;;14.20;96.60;;;;;;5068329;28;20038;-37
2022/03/16 12:54:23;;;;;;;8.13;7.32;;;14.20;96.50;;;;;;5078273;28;20012;-41
2022/03/16 12:56:51;;;;;;;6.50;5.90;;;14.10;96.40;;;;;;5068146;28;20059;-39